sensor_id;sensor_type;location;lat;lon;timestamp;P1;durP1;ratioP1;P2;durP2;ratioP2
4355;SDS011;64374;51.482;7.408;2023-11-21T00:01:10;15.93;;;9.40;;
4355;SDS011;64374;51.482;7.408;2023-11-21T00:03:39;15.15;;;10.32;;
4355;SDS011;64374;51.482;7.408;2023-11-21T00:06:10;15.80;;;9.00;;
4355;SDS011;64374;51.482;7.408;2023-11-21T00:08:41;15.63;;;9.15;;
4355;SDS011;64374;51.482;7.408;2023-11-21T00:11:14;14.55;;;8.85;;
4355;SDS011;64374;51.482;7.408;2023-11-21T00:13:43;18.80;;;9.23;;
4355;SDS011;64374;51.482;7.408;2023-11-21T00:16:17;14.88;;;8.45;;
4355;SDS011;64374;51.482;7.408;2023-11-21T00:18:46;12.55;;;8.50;;
4355;SDS011;64374;51.482;7.408;2023-11-21T00:21:32;14.70;;;8.45;;
4355;SDS011;64374;51.482;7.408;2023-11-21T00:24:19;15.77;;;9.18;;
4355;SDS011;64374;51.482;7.408;2023-11-21T00:27:06;13.60;;;8.30;;
4355;SDS011;64374;51.482;7.408;2023-11-21T00:29:52;16.67;;;9.48;;
4355;SDS011;64374;51.482;7.408;2023-11-21T00:32:41;16.33;;;8.80;;
4355;SDS011;64374;51.482;7.408;2023-11-21T00:35:28;16.65;;;8.70;;
4355;SDS011;64374;51.482;7.408;2023-11-21T00:38:17;16.08;;;9.05;;
4355;SDS011;64374;51.482;7.408;2023-11-21T00:41:04;14.80;;;10.20;;
4355;SDS011;64374;51.482;7.408;2023-11-21T00:43:52;15.07;;;9.10;;
4355;SDS011;64374;51.482;7.408;2023-11-21T00:46:39;17.90;;;9.65;;
4355;SDS011;64374;51.482;7.408;2023-11-21T00:49:28;15.25;;;9.55;;
4355;SDS011;64374;51.482;7.408;2023-11-21T00:52:19;14.95;;;8.93;;
4355;SDS011;64374;51.482;7.408;2023-11-21T00:55:06;11.70;;;8.85;;
4355;SDS011;64374;51.482;7.408;2023-11-21T00:57:53;13.77;;;8.17;;
4355;SDS011;64374;51.482;7.408;2023-11-21T01:00:40;13.07;;;8.00;;
4355;SDS011;64374;51.482;7.408;2023-11-21T01:03:34;14.23;;;8.25;;
4355;SDS011;64374;51.482;7.408;2023-11-21T01:06:25;12.85;;;8.02;;
4355;SDS011;64374;51.482;7.408;2023-11-21T01:09:12;11.80;;;8.10;;
4355;SDS011;64374;51.482;7.408;2023-11-21T01:11:59;15.93;;;9.00;;
4355;SDS011;64374;51.482;7.408;2023-11-21T01:14:48;14.38;;;8.77;;
4355;SDS011;64374;51.482;7.408;2023-11-21T01:17:36;17.60;;;9.30;;
4355;SDS011;64374;51.482;7.408;2023-11-21T01:20:26;18.10;;;9.80;;
4355;SDS011;64374;51.482;7.408;2023-11-21T01:23:20;15.10;;;9.30;;
4355;SDS011;64374;51.482;7.408;2023-11-21T01:26:07;18.48;;;9.20;;
4355;SDS011;64374;51.482;7.408;2023-11-21T01:28:55;17.88;;;9.40;;
4355;SDS011;64374;51.482;7.408;2023-11-21T01:31:43;18.60;;;9.75;;
4355;SDS011;64374;51.482;7.408;2023-11-21T01:34:30;15.98;;;9.88;;
4355;SDS011;64374;51.482;7.408;2023-11-21T01:37:18;15.63;;;8.85;;
4355;SDS011;64374;51.482;7.408;2023-11-21T01:40:08;18.27;;;10.00;;
4355;SDS011;64374;51.482;7.408;2023-11-21T01:43:00;15.37;;;9.77;;
4355;SDS011;64374;51.482;7.408;2023-11-21T01:45:51;15.15;;;9.80;;
4355;SDS011;64374;51.482;7.408;2023-11-21T01:48:41;19.92;;;9.98;;
4355;SDS011;64374;51.482;7.408;2023-11-21T01:54:40;15.75;;;10.35;;
4355;SDS011;64374;51.482;7.408;2023-11-21T01:57:33;17.27;;;9.60;;
4355;SDS011;64374;51.482;7.408;2023-11-21T02:00:19;16.88;;;9.93;;
4355;SDS011;64374;51.482;7.408;2023-11-21T02:03:09;17.08;;;10.38;;
4355;SDS011;64374;51.482;7.408;2023-11-21T02:05:57;16.95;;;12.13;;
4355;SDS011;64374;51.482;7.408;2023-11-21T02:08:26;18.27;;;10.95;;
4355;SDS011;64374;51.482;7.408;2023-11-21T02:10:54;16.08;;;10.32;;
4355;SDS011;64374;51.482;7.408;2023-11-21T02:13:34;18.77;;;10.48;;
4355;SDS011;64374;51.482;7.408;2023-11-21T02:16:03;16.08;;;10.60;;
4355;SDS011;64374;51.482;7.408;2023-11-21T02:18:33;19.83;;;11.68;;
4355;SDS011;64374;51.482;7.408;2023-11-21T02:21:04;17.30;;;10.57;;
4355;SDS011;64374;51.482;7.408;2023-11-21T02:23:38;19.57;;;10.43;;
4355;SDS011;64374;51.482;7.408;2023-11-21T02:26:10;16.23;;;10.68;;
4355;SDS011;64374;51.482;7.408;2023-11-21T02:28:38;19.05;;;11.13;;
4355;SDS011;64374;51.482;7.408;2023-11-21T02:31:07;16.77;;;10.25;;
4355;SDS011;64374;51.482;7.408;2023-11-21T02:33:53;17.27;;;10.30;;
4355;SDS011;64374;51.482;7.408;2023-11-21T02:36:40;17.70;;;10.85;;
4355;SDS011;64374;51.482;7.408;2023-11-21T02:39:28;19.02;;;11.48;;
4355;SDS011;64374;51.482;7.408;2023-11-21T02:42:15;18.77;;;10.05;;
4355;SDS011;64374;51.482;7.408;2023-11-21T02:45:02;19.92;;;11.27;;
4355;SDS011;64374;51.482;7.408;2023-11-21T02:47:51;16.13;;;10.57;;
4355;SDS011;64374;51.482;7.408;2023-11-21T02:50:42;20.02;;;11.52;;
4355;SDS011;64374;51.482;7.408;2023-11-21T02:53:33;17.00;;;11.48;;
4355;SDS011;64374;51.482;7.408;2023-11-21T02:56:03;16.17;;;10.57;;
4355;SDS011;64374;51.482;7.408;2023-11-21T02:58:32;21.13;;;11.50;;
4355;SDS011;64374;51.482;7.408;2023-11-21T03:01:09;16.80;;;10.73;;
4355;SDS011;64374;51.482;7.408;2023-11-21T03:03:48;18.77;;;10.40;;
4355;SDS011;64374;51.482;7.408;2023-11-21T03:06:20;17.73;;;10.88;;
4355;SDS011;64374;51.482;7.408;2023-11-21T03:08:49;15.60;;;10.02;;
4355;SDS011;64374;51.482;7.408;2023-11-21T03:11:18;18.48;;;10.90;;
4355;SDS011;64374;51.482;7.408;2023-11-21T03:13:46;20.63;;;12.45;;
4355;SDS011;64374;51.482;7.408;2023-11-21T03:16:17;18.00;;;11.60;;
4355;SDS011;64374;51.482;7.408;2023-11-21T03:18:46;18.42;;;11.50;;
4355;SDS011;64374;51.482;7.408;2023-11-21T03:21:19;20.25;;;11.40;;
4355;SDS011;64374;51.482;7.408;2023-11-21T03:23:47;16.23;;;10.45;;
4355;SDS011;64374;51.482;7.408;2023-11-21T03:26:19;17.77;;;11.10;;
4355;SDS011;64374;51.482;7.408;2023-11-21T03:28:50;20.40;;;10.27;;
4355;SDS011;64374;51.482;7.408;2023-11-21T03:31:20;20.00;;;10.40;;
4355;SDS011;64374;51.482;7.408;2023-11-21T03:34:10;18.73;;;11.73;;
4355;SDS011;64374;51.482;7.408;2023-11-21T03:37:01;19.33;;;11.10;;
4355;SDS011;64374;51.482;7.408;2023-11-21T03:39:48;17.52;;;11.05;;
4355;SDS011;64374;51.482;7.408;2023-11-21T03:42:37;17.63;;;11.60;;
4355;SDS011;64374;51.482;7.408;2023-11-21T03:45:23;15.95;;;10.32;;
4355;SDS011;64374;51.482;7.408;2023-11-21T03:48:10;19.90;;;12.55;;
4355;SDS011;64374;51.482;7.408;2023-11-21T03:50:58;19.10;;;11.88;;
4355;SDS011;64374;51.482;7.408;2023-11-21T03:53:45;16.95;;;11.30;;
4355;SDS011;64374;51.482;7.408;2023-11-21T03:56:31;19.42;;;11.18;;
4355;SDS011;64374;51.482;7.408;2023-11-21T03:59:22;24.80;;;12.32;;
4355;SDS011;64374;51.482;7.408;2023-11-21T04:02:23;18.02;;;10.35;;
4355;SDS011;64374;51.482;7.408;2023-11-21T04:05:11;16.40;;;10.77;;
4355;SDS011;64374;51.482;7.408;2023-11-21T04:07:57;16.00;;;10.13;;
4355;SDS011;64374;51.482;7.408;2023-11-21T04:10:44;17.27;;;10.30;;
4355;SDS011;64374;51.482;7.408;2023-11-21T04:13:33;17.57;;;10.40;;
4355;SDS011;64374;51.482;7.408;2023-11-21T04:16:23;18.42;;;10.93;;
4355;SDS011;64374;51.482;7.408;2023-11-21T04:18:54;15.77;;;10.57;;
4355;SDS011;64374;51.482;7.408;2023-11-21T04:21:24;20.55;;;11.27;;
4355;SDS011;64374;51.482;7.408;2023-11-21T04:23:53;18.02;;;11.48;;
4355;SDS011;64374;51.482;7.408;2023-11-21T04:26:21;17.48;;;10.48;;
4355;SDS011;64374;51.482;7.408;2023-11-21T04:28:49;20.90;;;11.75;;
4355;SDS011;64374;51.482;7.408;2023-11-21T04:31:17;14.20;;;9.88;;
4355;SDS011;64374;51.482;7.408;2023-11-21T04:33:49;18.35;;;10.85;;
4355;SDS011;64374;51.482;7.408;2023-11-21T04:36:17;18.15;;;11.40;;
4355;SDS011;64374;51.482;7.408;2023-11-21T04:38:47;16.48;;;11.50;;
4355;SDS011;64374;51.482;7.408;2023-11-21T04:41:36;16.15;;;10.63;;
4355;SDS011;64374;51.482;7.408;2023-11-21T04:44:24;20.23;;;10.90;;
4355;SDS011;64374;51.482;7.408;2023-11-21T04:46:54;18.30;;;11.20;;
4355;SDS011;64374;51.482;7.408;2023-11-21T04:49:28;20.80;;;11.98;;
4355;SDS011;64374;51.482;7.408;2023-11-21T04:51:56;20.33;;;12.07;;
4355;SDS011;64374;51.482;7.408;2023-11-21T04:54:26;16.55;;;10.70;;
4355;SDS011;64374;51.482;7.408;2023-11-21T04:56:55;17.17;;;10.80;;
4355;SDS011;64374;51.482;7.408;2023-11-21T04:59:23;16.00;;;10.10;;
4355;SDS011;64374;51.482;7.408;2023-11-21T05:01:53;19.73;;;11.05;;
4355;SDS011;64374;51.482;7.408;2023-11-21T05:04:25;15.88;;;10.50;;
4355;SDS011;64374;51.482;7.408;2023-11-21T05:06:55;18.20;;;10.82;;
4355;SDS011;64374;51.482;7.408;2023-11-21T05:09:23;18.70;;;11.70;;
4355;SDS011;64374;51.482;7.408;2023-11-21T05:11:53;18.60;;;11.32;;
4355;SDS011;64374;51.482;7.408;2023-11-21T05:14:24;15.88;;;10.45;;
4355;SDS011;64374;51.482;7.408;2023-11-21T05:16:53;18.08;;;12.40;;
4355;SDS011;64374;51.482;7.408;2023-11-21T05:19:21;18.35;;;11.93;;
4355;SDS011;64374;51.482;7.408;2023-11-21T05:21:49;21.20;;;12.00;;
4355;SDS011;64374;51.482;7.408;2023-11-21T05:24:19;18.00;;;10.90;;
4355;SDS011;64374;51.482;7.408;2023-11-21T05:26:47;28.08;;;14.00;;
4355;SDS011;64374;51.482;7.408;2023-11-21T05:29:17;21.53;;;13.60;;
4355;SDS011;64374;51.482;7.408;2023-11-21T05:31:45;20.48;;;14.00;;
4355;SDS011;64374;51.482;7.408;2023-11-21T05:34:21;24.05;;;13.02;;
4355;SDS011;64374;51.482;7.408;2023-11-21T05:37:09;23.50;;;12.73;;
4355;SDS011;64374;51.482;7.408;2023-11-21T05:40:03;28.70;;;14.10;;
4355;SDS011;64374;51.482;7.408;2023-11-21T05:42:51;24.30;;;13.27;;
4355;SDS011;64374;51.482;7.408;2023-11-21T05:45:38;27.55;;;13.50;;
4355;SDS011;64374;51.482;7.408;2023-11-21T05:48:25;22.10;;;13.23;;
4355;SDS011;64374;51.482;7.408;2023-11-21T05:51:14;22.08;;;13.25;;
4355;SDS011;64374;51.482;7.408;2023-11-21T05:54:00;25.17;;;13.57;;
4355;SDS011;64374;51.482;7.408;2023-11-21T05:56:51;25.08;;;13.10;;
4355;SDS011;64374;51.482;7.408;2023-11-21T05:59:37;22.88;;;13.32;;
4355;SDS011;64374;51.482;7.408;2023-11-21T06:02:24;23.35;;;13.98;;
4355;SDS011;64374;51.482;7.408;2023-11-21T06:05:11;21.05;;;13.10;;
4355;SDS011;64374;51.482;7.408;2023-11-21T06:07:58;21.27;;;13.37;;
4355;SDS011;64374;51.482;7.408;2023-11-21T06:10:48;17.48;;;12.63;;
4355;SDS011;64374;51.482;7.408;2023-11-21T06:13:38;22.35;;;13.70;;
4355;SDS011;64374;51.482;7.408;2023-11-21T06:16:25;22.45;;;14.10;;
4355;SDS011;64374;51.482;7.408;2023-11-21T06:19:21;24.80;;;14.07;;
4355;SDS011;64374;51.482;7.408;2023-11-21T06:22:10;29.10;;;14.77;;
4355;SDS011;64374;51.482;7.408;2023-11-21T06:24:56;24.33;;;14.50;;
4355;SDS011;64374;51.482;7.408;2023-11-21T06:27:45;28.83;;;14.80;;
4355;SDS011;64374;51.482;7.408;2023-11-21T06:30:35;21.90;;;14.50;;
4355;SDS011;64374;51.482;7.408;2023-11-21T06:33:21;23.70;;;13.70;;
4355;SDS011;64374;51.482;7.408;2023-11-21T06:36:08;26.07;;;14.90;;
4355;SDS011;64374;51.482;7.408;2023-11-21T06:38:56;27.80;;;14.80;;
4355;SDS011;64374;51.482;7.408;2023-11-21T06:41:51;25.88;;;14.98;;
4355;SDS011;64374;51.482;7.408;2023-11-21T06:44:45;27.05;;;15.18;;
4355;SDS011;64374;51.482;7.408;2023-11-21T06:47:34;28.73;;;15.07;;
4355;SDS011;64374;51.482;7.408;2023-11-21T06:50:21;25.98;;;14.90;;
4355;SDS011;64374;51.482;7.408;2023-11-21T06:53:08;25.50;;;15.00;;
4355;SDS011;64374;51.482;7.408;2023-11-21T06:56:20;26.70;;;14.20;;
4355;SDS011;64374;51.482;7.408;2023-11-21T06:59:13;25.77;;;14.35;;
4355;SDS011;64374;51.482;7.408;2023-11-21T07:01:59;28.42;;;13.85;;
4355;SDS011;64374;51.482;7.408;2023-11-21T07:04:51;29.33;;;14.68;;
4355;SDS011;64374;51.482;7.408;2023-11-21T07:07:40;30.13;;;14.82;;
4355;SDS011;64374;51.482;7.408;2023-11-21T07:10:27;29.70;;;16.00;;
4355;SDS011;64374;51.482;7.408;2023-11-21T07:13:13;54.42;;;17.08;;
4355;SDS011;64374;51.482;7.408;2023-11-21T07:16:00;38.20;;;15.70;;
4355;SDS011;64374;51.482;7.408;2023-11-21T07:19:04;42.47;;;16.95;;
4355;SDS011;64374;51.482;7.408;2023-11-21T07:21:53;34.30;;;16.23;;
4355;SDS011;64374;51.482;7.408;2023-11-21T07:24:40;38.40;;;16.60;;
4355;SDS011;64374;51.482;7.408;2023-11-21T07:27:29;30.33;;;14.80;;
4355;SDS011;64374;51.482;7.408;2023-11-21T07:30:16;30.92;;;15.30;;
4355;SDS011;64374;51.482;7.408;2023-11-21T07:33:02;38.97;;;17.60;;
4355;SDS011;64374;51.482;7.408;2023-11-21T07:35:49;32.88;;;16.00;;
4355;SDS011;64374;51.482;7.408;2023-11-21T07:38:39;48.37;;;18.70;;
4355;SDS011;64374;51.482;7.408;2023-11-21T07:41:28;36.45;;;15.07;;
4355;SDS011;64374;51.482;7.408;2023-11-21T07:44:18;28.55;;;16.08;;
4355;SDS011;64374;51.482;7.408;2023-11-21T07:47:07;31.83;;;16.58;;
4355;SDS011;64374;51.482;7.408;2023-11-21T07:49:56;26.30;;;14.20;;
4355;SDS011;64374;51.482;7.408;2023-11-21T07:52:43;31.33;;;15.10;;
4355;SDS011;64374;51.482;7.408;2023-11-21T07:55:30;26.67;;;14.43;;
4355;SDS011;64374;51.482;7.408;2023-11-21T07:58:19;25.60;;;14.20;;
4355;SDS011;64374;51.482;7.408;2023-11-21T08:01:05;27.20;;;14.70;;
4355;SDS011;64374;51.482;7.408;2023-11-21T08:03:53;27.10;;;14.80;;
4355;SDS011;64374;51.482;7.408;2023-11-21T08:06:42;25.17;;;14.43;;
4355;SDS011;64374;51.482;7.408;2023-11-21T08:09:28;31.33;;;15.75;;
4355;SDS011;64374;51.482;7.408;2023-11-21T08:12:16;29.52;;;15.95;;
4355;SDS011;64374;51.482;7.408;2023-11-21T08:15:06;29.97;;;16.50;;
4355;SDS011;64374;51.482;7.408;2023-11-21T08:17:54;23.50;;;13.85;;
4355;SDS011;64374;51.482;7.408;2023-11-21T08:20:40;26.33;;;14.63;;
4355;SDS011;64374;51.482;7.408;2023-11-21T08:23:27;25.88;;;14.15;;
4355;SDS011;64374;51.482;7.408;2023-11-21T08:26:17;27.73;;;14.83;;
4355;SDS011;64374;51.482;7.408;2023-11-21T08:29:07;27.70;;;14.97;;
4355;SDS011;64374;51.482;7.408;2023-11-21T08:31:54;27.75;;;14.13;;
4355;SDS011;64374;51.482;7.408;2023-11-21T08:34:43;27.23;;;15.35;;
4355;SDS011;64374;51.482;7.408;2023-11-21T08:37:31;29.75;;;15.60;;
4355;SDS011;64374;51.482;7.408;2023-11-21T08:40:22;26.63;;;15.37;;
4355;SDS011;64374;51.482;7.408;2023-11-21T08:43:12;27.70;;;15.27;;
4355;SDS011;64374;51.482;7.408;2023-11-21T08:46:08;22.45;;;15.25;;
4355;SDS011;64374;51.482;7.408;2023-11-21T08:48:58;29.10;;;14.80;;
4355;SDS011;64374;51.482;7.408;2023-11-21T08:51:45;27.17;;;15.02;;
4355;SDS011;64374;51.482;7.408;2023-11-21T08:54:33;31.67;;;16.80;;
4355;SDS011;64374;51.482;7.408;2023-11-21T08:57:20;25.37;;;15.37;;
4355;SDS011;64374;51.482;7.408;2023-11-21T09:00:07;30.00;;;16.77;;
4355;SDS011;64374;51.482;7.408;2023-11-21T09:02:57;29.42;;;17.80;;
4355;SDS011;64374;51.482;7.408;2023-11-21T09:05:44;28.83;;;17.85;;
4355;SDS011;64374;51.482;7.408;2023-11-21T09:08:33;30.20;;;17.48;;
4355;SDS011;64374;51.482;7.408;2023-11-21T09:11:23;32.97;;;17.95;;
4355;SDS011;64374;51.482;7.408;2023-11-21T09:14:10;32.05;;;17.10;;
4355;SDS011;64374;51.482;7.408;2023-11-21T09:16:58;34.67;;;18.75;;
4355;SDS011;64374;51.482;7.408;2023-11-21T09:19:49;31.92;;;17.73;;
4355;SDS011;64374;51.482;7.408;2023-11-21T09:22:37;31.95;;;17.73;;
4355;SDS011;64374;51.482;7.408;2023-11-21T09:25:23;34.97;;;19.35;;
4355;SDS011;64374;51.482;7.408;2023-11-21T09:28:12;34.30;;;18.77;;
4355;SDS011;64374;51.482;7.408;2023-11-21T09:30:59;35.97;;;18.40;;
4355;SDS011;64374;51.482;7.408;2023-11-21T09:33:50;38.80;;;20.45;;
4355;SDS011;64374;51.482;7.408;2023-11-21T09:36:41;47.85;;;21.27;;
4355;SDS011;64374;51.482;7.408;2023-11-21T09:39:31;49.72;;;25.40;;
4355;SDS011;64374;51.482;7.408;2023-11-21T09:42:19;58.90;;;28.58;;
4355;SDS011;64374;51.482;7.408;2023-11-21T09:45:13;53.95;;;28.33;;
4355;SDS011;64374;51.482;7.408;2023-11-21T09:48:06;59.60;;;30.42;;
4355;SDS011;64374;51.482;7.408;2023-11-21T09:50:56;52.20;;;28.23;;
4355;SDS011;64374;51.482;7.408;2023-11-21T09:53:45;55.55;;;29.90;;
4355;SDS011;64374;51.482;7.408;2023-11-21T09:56:36;51.67;;;28.52;;
4355;SDS011;64374;51.482;7.408;2023-11-21T09:59:25;55.53;;;30.70;;
4355;SDS011;64374;51.482;7.408;2023-11-21T10:02:27;53.70;;;29.20;;
4355;SDS011;64374;51.482;7.408;2023-11-21T10:05:16;57.08;;;28.95;;
4355;SDS011;64374;51.482;7.408;2023-11-21T10:08:10;58.53;;;29.98;;
4355;SDS011;64374;51.482;7.408;2023-11-21T10:11:06;49.73;;;27.97;;
4355;SDS011;64374;51.482;7.408;2023-11-21T10:13:57;51.65;;;28.58;;
4355;SDS011;64374;51.482;7.408;2023-11-21T10:16:47;54.53;;;29.50;;
4355;SDS011;64374;51.482;7.408;2023-11-21T10:19:36;53.03;;;28.27;;
4355;SDS011;64374;51.482;7.408;2023-11-21T10:22:24;51.75;;;28.95;;
4355;SDS011;64374;51.482;7.408;2023-11-21T10:25:12;45.10;;;25.70;;
4355;SDS011;64374;51.482;7.408;2023-11-21T10:28:02;48.28;;;27.23;;
4355;SDS011;64374;51.482;7.408;2023-11-21T10:30:53;58.97;;;29.02;;
4355;SDS011;64374;51.482;7.408;2023-11-21T10:33:39;51.58;;;26.90;;
4355;SDS011;64374;51.482;7.408;2023-11-21T10:36:29;49.17;;;27.10;;
4355;SDS011;64374;51.482;7.408;2023-11-21T10:39:16;45.13;;;24.83;;
4355;SDS011;64374;51.482;7.408;2023-11-21T10:41:45;47.85;;;25.90;;
4355;SDS011;64374;51.482;7.408;2023-11-21T10:44:16;48.25;;;26.10;;
4355;SDS011;64374;51.482;7.408;2023-11-21T10:46:51;51.78;;;26.58;;
4355;SDS011;64374;51.482;7.408;2023-11-21T10:49:24;50.38;;;27.00;;
4355;SDS011;64374;51.482;7.408;2023-11-21T10:51:54;47.92;;;26.33;;
4355;SDS011;64374;51.482;7.408;2023-11-21T10:54:24;49.67;;;25.85;;
4355;SDS011;64374;51.482;7.408;2023-11-21T10:56:53;46.05;;;25.20;;
4355;SDS011;64374;51.482;7.408;2023-11-21T10:59:46;47.70;;;24.77;;
4355;SDS011;64374;51.482;7.408;2023-11-21T11:02:33;45.83;;;25.83;;
4355;SDS011;64374;51.482;7.408;2023-11-21T11:05:21;50.05;;;26.33;;
4355;SDS011;64374;51.482;7.408;2023-11-21T11:08:12;53.88;;;28.05;;
4355;SDS011;64374;51.482;7.408;2023-11-21T11:11:04;54.50;;;26.70;;
4355;SDS011;64374;51.482;7.408;2023-11-21T11:14:02;50.28;;;27.65;;
4355;SDS011;64374;51.482;7.408;2023-11-21T11:16:53;52.25;;;27.05;;
4355;SDS011;64374;51.482;7.408;2023-11-21T11:19:41;48.80;;;26.40;;
4355;SDS011;64374;51.482;7.408;2023-11-21T11:22:31;50.80;;;27.13;;
4355;SDS011;64374;51.482;7.408;2023-11-21T11:25:49;49.13;;;26.93;;
4355;SDS011;64374;51.482;7.408;2023-11-21T11:28:46;46.72;;;25.65;;
4355;SDS011;64374;51.482;7.408;2023-11-21T11:31:39;48.05;;;25.40;;
4355;SDS011;64374;51.482;7.408;2023-11-21T11:34:36;50.97;;;25.88;;
4355;SDS011;64374;51.482;7.408;2023-11-21T11:37:28;52.67;;;25.13;;
4355;SDS011;64374;51.482;7.408;2023-11-21T11:40:18;39.80;;;22.45;;
4355;SDS011;64374;51.482;7.408;2023-11-21T11:43:08;43.60;;;24.10;;
4355;SDS011;64374;51.482;7.408;2023-11-21T11:45:56;46.97;;;23.83;;
4355;SDS011;64374;51.482;7.408;2023-11-21T11:48:45;44.47;;;23.63;;
4355;SDS011;64374;51.482;7.408;2023-11-21T11:51:33;41.00;;;23.03;;
4355;SDS011;64374;51.482;7.408;2023-11-21T11:54:31;40.07;;;23.07;;
4355;SDS011;64374;51.482;7.408;2023-11-21T11:57:23;40.72;;;23.73;;
4355;SDS011;64374;51.482;7.408;2023-11-21T12:00:14;37.97;;;22.15;;
4355;SDS011;64374;51.482;7.408;2023-11-21T12:03:08;37.60;;;23.35;;
4355;SDS011;64374;51.482;7.408;2023-11-21T12:05:57;40.78;;;22.65;;
4355;SDS011;64374;51.482;7.408;2023-11-21T12:08:57;36.80;;;20.73;;
4355;SDS011;64374;51.482;7.408;2023-11-21T12:11:49;32.30;;;18.85;;
4355;SDS011;64374;51.482;7.408;2023-11-21T12:14:37;35.10;;;19.23;;
4355;SDS011;64374;51.482;7.408;2023-11-21T12:17:31;24.33;;;15.93;;
4355;SDS011;64374;51.482;7.408;2023-11-21T12:20:23;23.50;;;16.30;;
4355;SDS011;64374;51.482;7.408;2023-11-21T12:23:13;24.30;;;16.00;;
4355;SDS011;64374;51.482;7.408;2023-11-21T12:26:04;27.75;;;17.52;;
4355;SDS011;64374;51.482;7.408;2023-11-21T12:28:51;23.98;;;15.50;;
4355;SDS011;64374;51.482;7.408;2023-11-21T12:31:41;23.83;;;15.38;;
4355;SDS011;64374;51.482;7.408;2023-11-21T12:34:28;25.92;;;16.25;;
4355;SDS011;64374;51.482;7.408;2023-11-21T12:37:16;24.27;;;16.50;;
4355;SDS011;64374;51.482;7.408;2023-11-21T12:40:07;22.63;;;15.73;;
4355;SDS011;64374;51.482;7.408;2023-11-21T12:42:58;24.50;;;16.40;;
4355;SDS011;64374;51.482;7.408;2023-11-21T12:45:47;24.70;;;15.60;;
4355;SDS011;64374;51.482;7.408;2023-11-21T12:48:37;24.73;;;17.10;;
4355;SDS011;64374;51.482;7.408;2023-11-21T12:51:27;21.77;;;16.20;;
4355;SDS011;64374;51.482;7.408;2023-11-21T12:54:15;29.05;;;17.75;;
4355;SDS011;64374;51.482;7.408;2023-11-21T12:57:03;27.90;;;16.70;;
4355;SDS011;64374;51.482;7.408;2023-11-21T12:59:57;25.33;;;16.83;;
4355;SDS011;64374;51.482;7.408;2023-11-21T13:02:46;22.50;;;15.98;;
4355;SDS011;64374;51.482;7.408;2023-11-21T13:05:37;22.17;;;16.20;;
4355;SDS011;64374;51.482;7.408;2023-11-21T13:08:27;23.13;;;15.45;;
4355;SDS011;64374;51.482;7.408;2023-11-21T13:11:16;22.83;;;15.90;;
4355;SDS011;64374;51.482;7.408;2023-11-21T13:14:08;22.25;;;14.77;;
4355;SDS011;64374;51.482;7.408;2023-11-21T13:17:00;22.73;;;15.33;;
4355;SDS011;64374;51.482;7.408;2023-11-21T13:19:47;23.42;;;15.85;;
4355;SDS011;64374;51.482;7.408;2023-11-21T13:22:34;21.40;;;15.70;;
4355;SDS011;64374;51.482;7.408;2023-11-21T13:25:26;25.90;;;16.98;;
4355;SDS011;64374;51.482;7.408;2023-11-21T13:28:13;26.70;;;17.70;;
4355;SDS011;64374;51.482;7.408;2023-11-21T13:31:00;24.15;;;17.05;;
4355;SDS011;64374;51.482;7.408;2023-11-21T13:34:04;23.90;;;16.08;;
4355;SDS011;64374;51.482;7.408;2023-11-21T13:36:56;22.73;;;14.90;;
4355;SDS011;64374;51.482;7.408;2023-11-21T13:39:45;20.55;;;14.25;;
4355;SDS011;64374;51.482;7.408;2023-11-21T13:42:36;17.95;;;12.93;;
4355;SDS011;64374;51.482;7.408;2023-11-21T13:45:23;21.47;;;14.53;;
4355;SDS011;64374;51.482;7.408;2023-11-21T13:48:13;18.67;;;12.82;;
4355;SDS011;64374;51.482;7.408;2023-11-21T13:51:05;18.38;;;12.75;;
4355;SDS011;64374;51.482;7.408;2023-11-21T13:53:59;17.50;;;12.33;;
4355;SDS011;64374;51.482;7.408;2023-11-21T13:56:46;19.87;;;12.30;;
4355;SDS011;64374;51.482;7.408;2023-11-21T13:59:37;18.42;;;12.38;;
4355;SDS011;64374;51.482;7.408;2023-11-21T14:02:23;25.13;;;15.73;;
4355;SDS011;64374;51.482;7.408;2023-11-21T14:05:17;23.25;;;15.70;;
4355;SDS011;64374;51.482;7.408;2023-11-21T14:08:15;21.35;;;14.27;;
4355;SDS011;64374;51.482;7.408;2023-11-21T14:11:06;21.83;;;14.90;;
4355;SDS011;64374;51.482;7.408;2023-11-21T14:13:52;18.60;;;12.60;;
4355;SDS011;64374;51.482;7.408;2023-11-21T14:16:39;21.30;;;14.03;;
4355;SDS011;64374;51.482;7.408;2023-11-21T14:19:29;23.83;;;14.40;;
4355;SDS011;64374;51.482;7.408;2023-11-21T14:22:17;20.13;;;14.15;;
4355;SDS011;64374;51.482;7.408;2023-11-21T14:25:08;20.08;;;12.88;;
4355;SDS011;64374;51.482;7.408;2023-11-21T14:27:57;18.35;;;12.15;;
4355;SDS011;64374;51.482;7.408;2023-11-21T14:30:44;15.40;;;11.15;;
4355;SDS011;64374;51.482;7.408;2023-11-21T14:33:31;16.90;;;11.90;;
4355;SDS011;64374;51.482;7.408;2023-11-21T14:36:18;18.85;;;12.65;;
4355;SDS011;64374;51.482;7.408;2023-11-21T14:39:04;17.00;;;12.10;;
4355;SDS011;64374;51.482;7.408;2023-11-21T14:41:56;14.65;;;10.70;;
4355;SDS011;64374;51.482;7.408;2023-11-21T14:44:45;16.73;;;12.20;;
4355;SDS011;64374;51.482;7.408;2023-11-21T14:47:17;15.35;;;11.13;;
4355;SDS011;64374;51.482;7.408;2023-11-21T14:49:51;11.77;;;10.27;;
4355;SDS011;64374;51.482;7.408;2023-11-21T14:52:21;13.30;;;10.10;;
4355;SDS011;64374;51.482;7.408;2023-11-21T14:54:59;14.10;;;9.95;;
4355;SDS011;64374;51.482;7.408;2023-11-21T14:57:43;13.57;;;9.98;;
4355;SDS011;64374;51.482;7.408;2023-11-21T15:00:19;14.38;;;9.60;;
4355;SDS011;64374;51.482;7.408;2023-11-21T15:03:13;9.77;;;8.10;;
4355;SDS011;64374;51.482;7.408;2023-11-21T15:06:02;10.57;;;8.60;;
4355;SDS011;64374;51.482;7.408;2023-11-21T15:08:57;11.45;;;8.23;;
4355;SDS011;64374;51.482;7.408;2023-11-21T15:11:42;8.40;;;7.50;;
4355;SDS011;64374;51.482;7.408;2023-11-21T15:14:14;10.30;;;7.82;;
4355;SDS011;64374;51.482;7.408;2023-11-21T15:16:48;9.15;;;7.00;;
4355;SDS011;64374;51.482;7.408;2023-11-21T15:19:20;7.50;;;6.53;;
4355;SDS011;64374;51.482;7.408;2023-11-21T15:21:52;6.75;;;5.90;;
4355;SDS011;64374;51.482;7.408;2023-11-21T15:24:20;7.88;;;7.07;;
4355;SDS011;64374;51.482;7.408;2023-11-21T15:27:07;6.85;;;6.15;;
4355;SDS011;64374;51.482;7.408;2023-11-21T15:29:56;6.55;;;5.85;;
4355;SDS011;64374;51.482;7.408;2023-11-21T15:32:46;6.90;;;5.60;;
4355;SDS011;64374;51.482;7.408;2023-11-21T15:35:33;6.60;;;5.90;;
4355;SDS011;64374;51.482;7.408;2023-11-21T15:38:27;10.03;;;8.10;;
4355;SDS011;64374;51.482;7.408;2023-11-21T15:41:13;10.60;;;8.50;;
4355;SDS011;64374;51.482;7.408;2023-11-21T15:44:02;14.80;;;10.20;;
4355;SDS011;64374;51.482;7.408;2023-11-21T15:46:53;11.48;;;9.60;;
4355;SDS011;64374;51.482;7.408;2023-11-21T15:49:43;11.25;;;9.60;;
4355;SDS011;64374;51.482;7.408;2023-11-21T15:52:34;12.40;;;10.48;;
4355;SDS011;64374;51.482;7.408;2023-11-21T15:55:40;11.45;;;9.85;;
4355;SDS011;64374;51.482;7.408;2023-11-21T15:58:28;12.75;;;9.98;;
4355;SDS011;64374;51.482;7.408;2023-11-21T16:01:14;12.98;;;9.90;;
4355;SDS011;64374;51.482;7.408;2023-11-21T16:04:05;12.40;;;9.47;;
4355;SDS011;64374;51.482;7.408;2023-11-21T16:06:52;9.60;;;8.60;;
4355;SDS011;64374;51.482;7.408;2023-11-21T16:09:39;10.85;;;8.80;;
4355;SDS011;64374;51.482;7.408;2023-11-21T16:12:28;9.73;;;8.25;;
4355;SDS011;64374;51.482;7.408;2023-11-21T16:15:15;10.45;;;8.63;;
4355;SDS011;64374;51.482;7.408;2023-11-21T16:18:03;12.70;;;10.20;;
4355;SDS011;64374;51.482;7.408;2023-11-21T16:20:54;12.30;;;9.95;;
4355;SDS011;64374;51.482;7.408;2023-11-21T16:23:40;11.70;;;10.33;;
4355;SDS011;64374;51.482;7.408;2023-11-21T16:26:27;9.60;;;8.60;;
4355;SDS011;64374;51.482;7.408;2023-11-21T16:29:15;14.60;;;10.18;;